sensor_id;sensor_type;location;lat;lon;timestamp;temperature;humidity
14397;DHT22;50653;47.810;13.022;2023-09-30T00:01:01;18.30;99.90
14397;DHT22;50653;47.810;13.022;2023-09-30T00:03:27;18.30;99.90
14397;DHT22;50653;47.810;13.022;2023-09-30T00:05:53;18.20;99.90
14397;DHT22;50653;47.810;13.022;2023-09-30T00:08:19;18.20;99.90
14397;DHT22;50653;47.810;13.022;2023-09-30T00:10:45;18.20;99.90
14397;DHT22;50653;47.810;13.022;2023-09-30T00:13:12;18.20;99.90
14397;DHT22;50653;47.810;13.022;2023-09-30T00:15:38;18.20;99.90
14397;DHT22;50653;47.810;13.022;2023-09-30T00:18:04;18.30;99.90
14397;DHT22;50653;47.810;13.022;2023-09-30T00:20:31;18.30;99.90
14397;DHT22;50653;47.810;13.022;2023-09-30T00:22:56;18.20;99.90
14397;DHT22;50653;47.810;13.022;2023-09-30T00:25:22;18.20;99.90
14397;DHT22;50653;47.810;13.022;2023-09-30T00:27:48;18.20;99.90
14397;DHT22;50653;47.810;13.022;2023-09-30T00:30:14;18.10;99.90
14397;DHT22;50653;47.810;13.022;2023-09-30T00:32:40;18.00;99.90
14397;DHT22;50653;47.810;13.022;2023-09-30T00:35:06;18.00;99.90
14397;DHT22;50653;47.810;13.022;2023-09-30T00:37:40;18.00;99.90
14397;DHT22;50653;47.810;13.022;2023-09-30T00:40:07;18.00;99.90
14397;DHT22;50653;47.810;13.022;2023-09-30T00:42:37;18.10;99.90
14397;DHT22;50653;47.810;13.022;2023-09-30T00:45:04;17.90;99.90
14397;DHT22;50653;47.810;13.022;2023-09-30T00:47:31;18.00;99.90
14397;DHT22;50653;47.810;13.022;2023-09-30T00:49:56;18.00;99.90
14397;DHT22;50653;47.810;13.022;2023-09-30T00:52:22;17.90;99.90
14397;DHT22;50653;47.810;13.022;2023-09-30T00:54:49;17.90;99.90
14397;DHT22;50653;47.810;13.022;2023-09-30T00:57:17;17.90;99.90
14397;DHT22;50653;47.810;13.022;2023-09-30T00:59:44;17.90;99.90
14397;DHT22;50653;47.810;13.022;2023-09-30T01:02:10;17.80;99.90
14397;DHT22;50653;47.810;13.022;2023-09-30T01:04:36;17.90;99.90
14397;DHT22;50653;47.810;13.022;2023-09-30T01:07:03;17.90;99.90
14397;DHT22;50653;47.810;13.022;2023-09-30T01:09:30;17.70;99.90
14397;DHT22;50653;47.810;13.022;2023-09-30T01:11:57;17.80;99.90
14397;DHT22;50653;47.810;13.022;2023-09-30T01:14:27;17.80;99.90
14397;DHT22;50653;47.810;13.022;2023-09-30T01:16:54;17.70;99.90
14397;DHT22;50653;47.810;13.022;2023-09-30T01:19:20;17.70;99.90
14397;DHT22;50653;47.810;13.022;2023-09-30T01:21:47;17.80;99.90
14397;DHT22;50653;47.810;13.022;2023-09-30T01:24:14;17.70;99.90
14397;DHT22;50653;47.810;13.022;2023-09-30T01:26:40;17.70;99.90
14397;DHT22;50653;47.810;13.022;2023-09-30T01:29:08;17.70;99.90
14397;DHT22;50653;47.810;13.022;2023-09-30T01:31:39;17.70;99.90
14397;DHT22;50653;47.810;13.022;2023-09-30T01:34:05;17.70;99.90
14397;DHT22;50653;47.810;13.022;2023-09-30T01:36:31;17.60;99.90
14397;DHT22;50653;47.810;13.022;2023-09-30T01:38:57;17.70;99.90
14397;DHT22;50653;47.810;13.022;2023-09-30T01:41:23;17.80;99.90
14397;DHT22;50653;47.810;13.022;2023-09-30T01:43:49;17.60;99.90
14397;DHT22;50653;47.810;13.022;2023-09-30T01:46:15;17.70;99.90
14397;DHT22;50653;47.810;13.022;2023-09-30T01:48:40;17.70;99.90
14397;DHT22;50653;47.810;13.022;2023-09-30T01:51:06;17.60;99.90
14397;DHT22;50653;47.810;13.022;2023-09-30T01:53:32;17.70;99.90
14397;DHT22;50653;47.810;13.022;2023-09-30T01:55:58;17.70;99.90
14397;DHT22;50653;47.810;13.022;2023-09-30T01:58:24;17.70;99.90
14397;DHT22;50653;47.810;13.022;2023-09-30T02:00:53;17.60;99.90
14397;DHT22;50653;47.810;13.022;2023-09-30T02:03:19;17.60;99.90
14397;DHT22;50653;47.810;13.022;2023-09-30T02:05:45;17.60;99.90
14397;DHT22;50653;47.810;13.022;2023-09-30T02:08:10;17.60;99.90
14397;DHT22;50653;47.810;13.022;2023-09-30T02:10:36;17.50;99.90
14397;DHT22;50653;47.810;13.022;2023-09-30T02:13:02;17.70;99.90
14397;DHT22;50653;47.810;13.022;2023-09-30T02:15:31;17.70;99.90
14397;DHT22;50653;47.810;13.022;2023-09-30T02:17:57;17.70;99.90
14397;DHT22;50653;47.810;13.022;2023-09-30T02:20:23;17.70;99.90
14397;DHT22;50653;47.810;13.022;2023-09-30T02:22:51;17.60;99.90
14397;DHT22;50653;47.810;13.022;2023-09-30T02:25:18;17.70;99.90
14397;DHT22;50653;47.810;13.022;2023-09-30T02:27:44;17.60;99.90
14397;DHT22;50653;47.810;13.022;2023-09-30T02:30:11;17.70;99.90
14397;DHT22;50653;47.810;13.022;2023-09-30T02:32:41;17.80;99.90
14397;DHT22;50653;47.810;13.022;2023-09-30T02:35:08;17.80;99.90
14397;DHT22;50653;47.810;13.022;2023-09-30T02:37:36;17.70;99.90
14397;DHT22;50653;47.810;13.022;2023-09-30T02:40:03;17.70;99.90
14397;DHT22;50653;47.810;13.022;2023-09-30T02:42:36;17.60;99.90
14397;DHT22;50653;47.810;13.022;2023-09-30T02:45:02;17.70;99.90
14397;DHT22;50653;47.810;13.022;2023-09-30T02:47:28;17.60;99.90
14397;DHT22;50653;47.810;13.022;2023-09-30T02:49:56;17.60;99.90
14397;DHT22;50653;47.810;13.022;2023-09-30T02:52:24;17.50;99.90
14397;DHT22;50653;47.810;13.022;2023-09-30T02:54:50;17.60;99.90
14397;DHT22;50653;47.810;13.022;2023-09-30T02:57:17;17.50;99.90
14397;DHT22;50653;47.810;13.022;2023-09-30T02:59:43;17.50;99.90
14397;DHT22;50653;47.810;13.022;2023-09-30T03:02:11;17.60;99.90
14397;DHT22;50653;47.810;13.022;2023-09-30T03:04:37;17.70;99.90
14397;DHT22;50653;47.810;13.022;2023-09-30T03:07:03;17.60;99.90
14397;DHT22;50653;47.810;13.022;2023-09-30T03:09:29;17.60;99.90
14397;DHT22;50653;47.810;13.022;2023-09-30T03:11:54;17.60;99.90
14397;DHT22;50653;47.810;13.022;2023-09-30T03:14:25;17.60;99.90
14397;DHT22;50653;47.810;13.022;2023-09-30T03:16:51;17.60;99.90
14397;DHT22;50653;47.810;13.022;2023-09-30T03:19:17;17.70;99.90
14397;DHT22;50653;47.810;13.022;2023-09-30T03:21:43;17.60;99.90
14397;DHT22;50653;47.810;13.022;2023-09-30T03:24:09;17.60;99.90
14397;DHT22;50653;47.810;13.022;2023-09-30T03:26:35;17.70;99.90
14397;DHT22;50653;47.810;13.022;2023-09-30T03:29:01;17.60;99.90
14397;DHT22;50653;47.810;13.022;2023-09-30T03:31:27;17.60;99.90
14397;DHT22;50653;47.810;13.022;2023-09-30T03:33:52;17.60;99.90
14397;DHT22;50653;47.810;13.022;2023-09-30T03:36:22;17.60;99.90
14397;DHT22;50653;47.810;13.022;2023-09-30T03:38:50;17.50;99.90
14397;DHT22;50653;47.810;13.022;2023-09-30T03:41:19;17.60;99.90
14397;DHT22;50653;47.810;13.022;2023-09-30T03:43:45;17.60;99.90
14397;DHT22;50653;47.810;13.022;2023-09-30T03:46:11;17.60;99.90
14397;DHT22;50653;47.810;13.022;2023-09-30T03:48:38;17.60;99.90
14397;DHT22;50653;47.810;13.022;2023-09-30T03:51:13;17.50;99.90
14397;DHT22;50653;47.810;13.022;2023-09-30T03:53:45;17.50;99.90
14397;DHT22;50653;47.810;13.022;2023-09-30T03:56:11;17.60;99.90
14397;DHT22;50653;47.810;13.022;2023-09-30T03:58:38;17.60;99.90
14397;DHT22;50653;47.810;13.022;2023-09-30T04:01:04;17.60;99.90
14397;DHT22;50653;47.810;13.022;2023-09-30T04:03:30;17.50;99.90
14397;DHT22;50653;47.810;13.022;2023-09-30T04:05:59;17.40;99.90
14397;DHT22;50653;47.810;13.022;2023-09-30T04:08:24;17.50;99.90
14397;DHT22;50653;47.810;13.022;2023-09-30T04:10:50;17.40;99.90
14397;DHT22;50653;47.810;13.022;2023-09-30T04:13:15;17.60;99.90
14397;DHT22;50653;47.810;13.022;2023-09-30T04:15:43;17.50;99.90
14397;DHT22;50653;47.810;13.022;2023-09-30T04:18:10;17.50;99.90
14397;DHT22;50653;47.810;13.022;2023-09-30T04:20:37;17.60;99.90
14397;DHT22;50653;47.810;13.022;2023-09-30T04:23:08;17.60;99.90
14397;DHT22;50653;47.810;13.022;2023-09-30T04:25:35;17.40;99.90
14397;DHT22;50653;47.810;13.022;2023-09-30T04:28:01;17.60;99.90
14397;DHT22;50653;47.810;13.022;2023-09-30T04:30:28;17.60;99.90
14397;DHT22;50653;47.810;13.022;2023-09-30T04:32:54;17.50;99.90
14397;DHT22;50653;47.810;13.022;2023-09-30T04:35:20;17.60;99.90
14397;DHT22;50653;47.810;13.022;2023-09-30T04:37:47;17.60;99.90
14397;DHT22;50653;47.810;13.022;2023-09-30T04:40:12;17.50;99.90
14397;DHT22;50653;47.810;13.022;2023-09-30T04:42:44;17.60;99.90
14397;DHT22;50653;47.810;13.022;2023-09-30T04:45:11;17.60;99.90
14397;DHT22;50653;47.810;13.022;2023-09-30T04:47:36;17.60;99.90
14397;DHT22;50653;47.810;13.022;2023-09-30T04:50:06;17.60;99.90
14397;DHT22;50653;47.810;13.022;2023-09-30T04:52:36;17.60;99.90
14397;DHT22;50653;47.810;13.022;2023-09-30T04:55:02;17.60;99.90
14397;DHT22;50653;47.810;13.022;2023-09-30T04:57:32;17.60;99.90
14397;DHT22;50653;47.810;13.022;2023-09-30T04:59:58;17.60;99.90
14397;DHT22;50653;47.810;13.022;2023-09-30T05:02:24;17.60;99.90
14397;DHT22;50653;47.810;13.022;2023-09-30T05:04:50;17.60;99.90
14397;DHT22;50653;47.810;13.022;2023-09-30T05:07:16;17.60;99.90
14397;DHT22;50653;47.810;13.022;2023-09-30T05:09:42;17.60;99.90
14397;DHT22;50653;47.810;13.022;2023-09-30T05:12:08;17.60;99.90
14397;DHT22;50653;47.810;13.022;2023-09-30T05:14:34;17.50;99.90
14397;DHT22;50653;47.810;13.022;2023-09-30T05:17:00;17.50;99.90
14397;DHT22;50653;47.810;13.022;2023-09-30T05:19:26;17.50;99.90
14397;DHT22;50653;47.810;13.022;2023-09-30T05:21:52;17.50;99.90
14397;DHT22;50653;47.810;13.022;2023-09-30T05:24:18;17.50;99.90
14397;DHT22;50653;47.810;13.022;2023-09-30T05:26:45;17.50;99.90
14397;DHT22;50653;47.810;13.022;2023-09-30T05:29:10;17.50;99.90
14397;DHT22;50653;47.810;13.022;2023-09-30T05:31:36;17.40;99.90
14397;DHT22;50653;47.810;13.022;2023-09-30T05:34:02;17.50;99.90
14397;DHT22;50653;47.810;13.022;2023-09-30T05:36:28;17.50;99.90
14397;DHT22;50653;47.810;13.022;2023-09-30T05:38:55;17.50;99.90
14397;DHT22;50653;47.810;13.022;2023-09-30T05:41:21;17.40;99.90
14397;DHT22;50653;47.810;13.022;2023-09-30T05:43:47;17.40;99.90
14397;DHT22;50653;47.810;13.022;2023-09-30T05:46:13;17.40;99.90
14397;DHT22;50653;47.810;13.022;2023-09-30T05:48:38;17.50;99.90
14397;DHT22;50653;47.810;13.022;2023-09-30T05:51:05;17.60;99.90
14397;DHT22;50653;47.810;13.022;2023-09-30T05:53:32;17.50;99.90
14397;DHT22;50653;47.810;13.022;2023-09-30T05:56:01;17.50;99.90
14397;DHT22;50653;47.810;13.022;2023-09-30T05:58:26;17.60;99.90
14397;DHT22;50653;47.810;13.022;2023-09-30T06:00:52;17.60;99.90
14397;DHT22;50653;47.810;13.022;2023-09-30T06:03:19;17.50;99.90
14397;DHT22;50653;47.810;13.022;2023-09-30T06:05:47;17.50;99.90
14397;DHT22;50653;47.810;13.022;2023-09-30T06:08:14;17.50;99.90
14397;DHT22;50653;47.810;13.022;2023-09-30T06:10:43;17.50;99.90
14397;DHT22;50653;47.810;13.022;2023-09-30T06:13:10;17.60;99.90
14397;DHT22;50653;47.810;13.022;2023-09-30T06:15:40;17.60;99.90
14397;DHT22;50653;47.810;13.022;2023-09-30T06:18:06;17.50;99.90
14397;DHT22;50653;47.810;13.022;2023-09-30T06:20:32;17.50;99.90
14397;DHT22;50653;47.810;13.022;2023-09-30T06:22:59;17.60;99.90
14397;DHT22;50653;47.810;13.022;2023-09-30T06:25:26;17.60;99.90
14397;DHT22;50653;47.810;13.022;2023-09-30T06:27:53;17.60;99.90
14397;DHT22;50653;47.810;13.022;2023-09-30T06:30:20;17.60;99.90
14397;DHT22;50653;47.810;13.022;2023-09-30T06:32:47;17.70;99.90
14397;DHT22;50653;47.810;13.022;2023-09-30T06:35:13;17.60;99.90
14397;DHT22;50653;47.810;13.022;2023-09-30T06:37:39;17.60;99.90
14397;DHT22;50653;47.810;13.022;2023-09-30T06:40:06;17.50;99.90
14397;DHT22;50653;47.810;13.022;2023-09-30T06:42:34;17.50;99.90
14397;DHT22;50653;47.810;13.022;2023-09-30T06:45:04;17.60;99.90
14397;DHT22;50653;47.810;13.022;2023-09-30T06:47:33;17.60;99.90
14397;DHT22;50653;47.810;13.022;2023-09-30T06:50:01;17.60;99.90
14397;DHT22;50653;47.810;13.022;2023-09-30T06:52:37;17.60;99.90
14397;DHT22;50653;47.810;13.022;2023-09-30T06:55:03;17.70;99.90
14397;DHT22;50653;47.810;13.022;2023-09-30T06:57:34;17.80;99.90
14397;DHT22;50653;47.810;13.022;2023-09-30T07:00:00;17.80;99.90
14397;DHT22;50653;47.810;13.022;2023-09-30T07:02:26;17.90;99.90
14397;DHT22;50653;47.810;13.022;2023-09-30T07:04:52;17.80;99.90
14397;DHT22;50653;47.810;13.022;2023-09-30T07:07:18;17.80;99.90
14397;DHT22;50653;47.810;13.022;2023-09-30T07:09:44;17.90;99.90
14397;DHT22;50653;47.810;13.022;2023-09-30T07:12:10;17.90;99.90
14397;DHT22;50653;47.810;13.022;2023-09-30T07:14:36;17.80;99.90
14397;DHT22;50653;47.810;13.022;2023-09-30T07:17:01;17.80;99.90
14397;DHT22;50653;47.810;13.022;2023-09-30T07:19:30;17.80;99.90
14397;DHT22;50653;47.810;13.022;2023-09-30T07:21:56;17.90;99.90
14397;DHT22;50653;47.810;13.022;2023-09-30T07:24:22;18.00;99.90
14397;DHT22;50653;47.810;13.022;2023-09-30T07:26:48;17.90;99.90
14397;DHT22;50653;47.810;13.022;2023-09-30T07:29:13;18.10;99.90
14397;DHT22;50653;47.810;13.022;2023-09-30T07:31:39;18.10;99.90
14397;DHT22;50653;47.810;13.022;2023-09-30T07:34:05;18.10;99.90
14397;DHT22;50653;47.810;13.022;2023-09-30T07:36:30;18.10;99.90
14397;DHT22;50653;47.810;13.022;2023-09-30T07:38:56;18.20;99.90
14397;DHT22;50653;47.810;13.022;2023-09-30T07:41:22;18.30;99.90
14397;DHT22;50653;47.810;13.022;2023-09-30T07:43:48;18.30;99.90
14397;DHT22;50653;47.810;13.022;2023-09-30T07:46:14;18.30;99.90
14397;DHT22;50653;47.810;13.022;2023-09-30T07:48:41;18.40;99.90
14397;DHT22;50653;47.810;13.022;2023-09-30T07:51:07;18.40;99.90
14397;DHT22;50653;47.810;13.022;2023-09-30T07:53:38;18.40;99.90
14397;DHT22;50653;47.810;13.022;2023-09-30T07:56:05;18.40;99.90
14397;DHT22;50653;47.810;13.022;2023-09-30T07:58:31;18.40;99.90
14397;DHT22;50653;47.810;13.022;2023-09-30T08:00:57;18.30;99.90
14397;DHT22;50653;47.810;13.022;2023-09-30T08:03:23;18.30;99.90
14397;DHT22;50653;47.810;13.022;2023-09-30T08:05:49;18.40;99.90
14397;DHT22;50653;47.810;13.022;2023-09-30T08:08:16;18.30;99.90
14397;DHT22;50653;47.810;13.022;2023-09-30T08:10:42;18.40;99.90
14397;DHT22;50653;47.810;13.022;2023-09-30T08:13:08;18.40;99.90
14397;DHT22;50653;47.810;13.022;2023-09-30T08:15:35;18.40;99.90
14397;DHT22;50653;47.810;13.022;2023-09-30T08:18:02;18.50;99.90
14397;DHT22;50653;47.810;13.022;2023-09-30T08:20:29;18.50;99.90
14397;DHT22;50653;47.810;13.022;2023-09-30T08:22:55;18.60;99.90
14397;DHT22;50653;47.810;13.022;2023-09-30T08:25:21;18.60;99.90
14397;DHT22;50653;47.810;13.022;2023-09-30T08:27:47;18.60;99.90
14397;DHT22;50653;47.810;13.022;2023-09-30T08:30:15;18.70;99.90
14397;DHT22;50653;47.810;13.022;2023-09-30T08:32:41;18.70;99.90
14397;DHT22;50653;47.810;13.022;2023-09-30T08:35:07;18.70;99.90
14397;DHT22;50653;47.810;13.022;2023-09-30T08:37:33;18.70;99.90
14397;DHT22;50653;47.810;13.022;2023-09-30T08:39:59;18.80;99.90
14397;DHT22;50653;47.810;13.022;2023-09-30T08:42:27;18.90;99.90
14397;DHT22;50653;47.810;13.022;2023-09-30T08:44:58;18.90;99.90
14397;DHT22;50653;47.810;13.022;2023-09-30T08:47:26;18.90;99.90
14397;DHT22;50653;47.810;13.022;2023-09-30T08:49:54;19.00;99.90
14397;DHT22;50653;47.810;13.022;2023-09-30T08:52:23;19.10;99.90
14397;DHT22;50653;47.810;13.022;2023-09-30T08:54:50;19.10;99.90
14397;DHT22;50653;47.810;13.022;2023-09-30T08:57:19;19.20;99.90
14397;DHT22;50653;47.810;13.022;2023-09-30T08:59:46;19.20;99.90
14397;DHT22;50653;47.810;13.022;2023-09-30T09:02:13;19.20;99.90
14397;DHT22;50653;47.810;13.022;2023-09-30T09:04:39;19.30;99.90
14397;DHT22;50653;47.810;13.022;2023-09-30T09:07:05;19.30;99.90
14397;DHT22;50653;47.810;13.022;2023-09-30T09:09:31;19.40;99.90
14397;DHT22;50653;47.810;13.022;2023-09-30T09:11:58;19.30;99.90
14397;DHT22;50653;47.810;13.022;2023-09-30T09:14:41;19.20;99.90
14397;DHT22;50653;47.810;13.022;2023-09-30T09:17:10;19.20;99.90
14397;DHT22;50653;47.810;13.022;2023-09-30T09:19:35;19.20;99.90
14397;DHT22;50653;47.810;13.022;2023-09-30T09:22:03;19.20;99.90
14397;DHT22;50653;47.810;13.022;2023-09-30T09:24:38;19.30;99.90
14397;DHT22;50653;47.810;13.022;2023-09-30T09:27:13;19.40;99.90
14397;DHT22;50653;47.810;13.022;2023-09-30T09:29:42;19.40;99.90
14397;DHT22;50653;47.810;13.022;2023-09-30T09:34:37;19.40;99.90
14397;DHT22;50653;47.810;13.022;2023-09-30T09:37:17;19.40;99.90
14397;DHT22;50653;47.810;13.022;2023-09-30T09:39:53;19.40;99.90
14397;DHT22;50653;47.810;13.022;2023-09-30T09:42:31;19.30;99.90
14397;DHT22;50653;47.810;13.022;2023-09-30T09:45:03;19.10;99.90
14397;DHT22;50653;47.810;13.022;2023-09-30T09:47:32;19.30;99.90
14397;DHT22;50653;47.810;13.022;2023-09-30T09:49:58;19.30;99.90
14397;DHT22;50653;47.810;13.022;2023-09-30T09:52:25;19.30;99.90
14397;DHT22;50653;47.810;13.022;2023-09-30T09:54:52;19.40;99.90
14397;DHT22;50653;47.810;13.022;2023-09-30T09:57:19;19.30;99.90
14397;DHT22;50653;47.810;13.022;2023-09-30T09:59:45;19.40;99.90
14397;DHT22;50653;47.810;13.022;2023-09-30T10:02:15;19.30;99.90
14397;DHT22;50653;47.810;13.022;2023-09-30T10:04:46;19.40;99.90
14397;DHT22;50653;47.810;13.022;2023-09-30T10:07:16;19.30;99.90
14397;DHT22;50653;47.810;13.022;2023-09-30T10:09:46;19.40;99.90
14397;DHT22;50653;47.810;13.022;2023-09-30T10:12:14;19.40;99.90
14397;DHT22;50653;47.810;13.022;2023-09-30T10:14:40;19.40;99.90
14397;DHT22;50653;47.810;13.022;2023-09-30T10:17:06;19.30;99.90
14397;DHT22;50653;47.810;13.022;2023-09-30T10:19:32;19.40;99.90
14397;DHT22;50653;47.810;13.022;2023-09-30T10:24:42;19.60;99.90
14397;DHT22;50653;47.810;13.022;2023-09-30T10:29:58;19.40;99.90
14397;DHT22;50653;47.810;13.022;2023-09-30T10:35:19;19.40;99.90
14397;DHT22;50653;47.810;13.022;2023-09-30T10:37:46;19.50;99.90
14397;DHT22;50653;47.810;13.022;2023-09-30T10:40:30;19.60;99.90
14397;DHT22;50653;47.810;13.022;2023-09-30T10:42:59;19.50;99.90
14397;DHT22;50653;47.810;13.022;2023-09-30T10:48:37;19.70;99.90
14397;DHT22;50653;47.810;13.022;2023-09-30T10:51:19;19.80;99.90
14397;DHT22;50653;47.810;13.022;2023-09-30T10:53:53;19.70;99.90
14397;DHT22;50653;47.810;13.022;2023-09-30T10:56:23;19.80;99.90
14397;DHT22;50653;47.810;13.022;2023-09-30T10:58:52;19.70;99.90
14397;DHT22;50653;47.810;13.022;2023-09-30T11:01:19;19.80;99.90
14397;DHT22;50653;47.810;13.022;2023-09-30T11:03:45;19.80;99.90
14397;DHT22;50653;47.810;13.022;2023-09-30T11:06:13;19.80;99.90
14397;DHT22;50653;47.810;13.022;2023-09-30T11:08:47;19.80;99.90
14397;DHT22;50653;47.810;13.022;2023-09-30T11:11:16;19.80;99.90
14397;DHT22;50653;47.810;13.022;2023-09-30T11:13:42;19.90;99.90
14397;DHT22;50653;47.810;13.022;2023-09-30T11:16:07;20.00;99.90
14397;DHT22;50653;47.810;13.022;2023-09-30T11:18:34;20.00;99.90
14397;DHT22;50653;47.810;13.022;2023-09-30T11:21:11;20.00;99.90
14397;DHT22;50653;47.810;13.022;2023-09-30T11:23:39;19.90;99.90
14397;DHT22;50653;47.810;13.022;2023-09-30T11:26:06;20.00;99.90
14397;DHT22;50653;47.810;13.022;2023-09-30T11:28:43;20.10;99.90
14397;DHT22;50653;47.810;13.022;2023-09-30T11:31:13;20.10;99.90
14397;DHT22;50653;47.810;13.022;2023-09-30T11:33:55;20.00;99.90
14397;DHT22;50653;47.810;13.022;2023-09-30T11:36:23;19.90;99.90
14397;DHT22;50653;47.810;13.022;2023-09-30T11:38:51;20.00;99.90
14397;DHT22;50653;47.810;13.022;2023-09-30T11:41:18;20.00;99.90
14397;DHT22;50653;47.810;13.022;2023-09-30T11:44:10;19.80;99.90
14397;DHT22;50653;47.810;13.022;2023-09-30T11:52:11;19.90;99.90
14397;DHT22;50653;47.810;13.022;2023-09-30T11:54:44;19.90;99.90
14397;DHT22;50653;47.810;13.022;2023-09-30T11:57:11;19.70;99.90
14397;DHT22;50653;47.810;13.022;2023-09-30T11:59:41;19.60;99.90
14397;DHT22;50653;47.810;13.022;2023-09-30T12:02:10;19.70;99.90
14397;DHT22;50653;47.810;13.022;2023-09-30T12:04:37;19.80;99.90
14397;DHT22;50653;47.810;13.022;2023-09-30T12:07:03;19.80;99.90
14397;DHT22;50653;47.810;13.022;2023-09-30T12:09:28;19.80;99.90
14397;DHT22;50653;47.810;13.022;2023-09-30T12:11:56;19.90;99.90
14397;DHT22;50653;47.810;13.022;2023-09-30T12:14:24;19.90;99.90
14397;DHT22;50653;47.810;13.022;2023-09-30T12:16:50;19.90;99.90
14397;DHT22;50653;47.810;13.022;2023-09-30T12:19:17;19.80;99.90
14397;DHT22;50653;47.810;13.022;2023-09-30T12:21:44;19.90;99.90
14397;DHT22;50653;47.810;13.022;2023-09-30T12:24:12;19.80;99.90
14397;DHT22;50653;47.810;13.022;2023-09-30T12:26:45;19.90;99.90
14397;DHT22;50653;47.810;13.022;2023-09-30T12:29:18;19.90;99.90
14397;DHT22;50653;47.810;13.022;2023-09-30T12:31:52;20.00;99.90
14397;DHT22;50653;47.810;13.022;2023-09-30T12:34:18;20.00;99.90
14397;DHT22;50653;47.810;13.022;2023-09-30T12:36:43;20.10;99.90
14397;DHT22;50653;47.810;13.022;2023-09-30T12:39:10;20.10;99.90
14397;DHT22;50653;47.810;13.022;2023-09-30T12:41:40;20.20;99.90
14397;DHT22;50653;47.810;13.022;2023-09-30T12:44:07;20.20;99.90
14397;DHT22;50653;47.810;13.022;2023-09-30T12:46:33;20.30;99.90
14397;DHT22;50653;47.810;13.022;2023-09-30T12:49:04;20.30;99.90
14397;DHT22;50653;47.810;13.022;2023-09-30T12:51:30;20.20;99.90
14397;DHT22;50653;47.810;13.022;2023-09-30T12:53:56;20.20;99.90
14397;DHT22;50653;47.810;13.022;2023-09-30T12:56:23;20.30;99.90
14397;DHT22;50653;47.810;13.022;2023-09-30T12:58:49;20.20;99.90
14397;DHT22;50653;47.810;13.022;2023-09-30T13:01:15;20.40;99.90
14397;DHT22;50653;47.810;13.022;2023-09-30T13:03:44;20.40;99.90
14397;DHT22;50653;47.810;13.022;2023-09-30T13:06:10;20.40;99.90
14397;DHT22;50653;47.810;13.022;2023-09-30T13:08:35;20.50;99.90
14397;DHT22;50653;47.810;13.022;2023-09-30T13:11:02;20.30;99.90
14397;DHT22;50653;47.810;13.022;2023-09-30T13:13:29;20.40;99.90
14397;DHT22;50653;47.810;13.022;2023-09-30T13:15:57;20.30;99.90
14397;DHT22;50653;47.810;13.022;2023-09-30T13:18:23;20.30;99.90
14397;DHT22;50653;47.810;13.022;2023-09-30T13:20:48;20.40;99.90
14397;DHT22;50653;47.810;13.022;2023-09-30T13:23:14;20.30;99.90
14397;DHT22;50653;47.810;13.022;2023-09-30T13:25:40;20.40;99.90
14397;DHT22;50653;47.810;13.022;2023-09-30T13:28:05;20.40;99.90
14397;DHT22;50653;47.810;13.022;2023-09-30T13:30:31;20.40;99.90
14397;DHT22;50653;47.810;13.022;2023-09-30T13:32:57;20.40;99.90
14397;DHT22;50653;47.810;13.022;2023-09-30T13:35:23;20.30;99.90
14397;DHT22;50653;47.810;13.022;2023-09-30T13:37:49;20.20;99.90
14397;DHT22;50653;47.810;13.022;2023-09-30T13:40:15;20.20;99.90
14397;DHT22;50653;47.810;13.022;2023-09-30T13:42:44;20.10;99.90
14397;DHT22;50653;47.810;13.022;2023-09-30T13:45:10;20.20;99.90
14397;DHT22;50653;47.810;13.022;2023-09-30T13:47:36;20.10;99.90
14397;DHT22;50653;47.810;13.022;2023-09-30T13:50:02;20.20;99.90
14397;DHT22;50653;47.810;13.022;2023-09-30T13:52:29;20.20;99.90
14397;DHT22;50653;47.810;13.022;2023-09-30T13:54:57;20.20;99.90
14397;DHT22;50653;47.810;13.022;2023-09-30T13:57:26;20.20;99.90
14397;DHT22;50653;47.810;13.022;2023-09-30T13:59:52;20.30;99.90
14397;DHT22;50653;47.810;13.022;2023-09-30T14:02:18;20.20;99.90
14397;DHT22;50653;47.810;13.022;2023-09-30T14:05:07;20.20;99.90
14397;DHT22;50653;47.810;13.022;2023-09-30T14:07:39;20.20;99.90
14397;DHT22;50653;47.810;13.022;2023-09-30T14:10:07;20.20;99.90
14397;DHT22;50653;47.810;13.022;2023-09-30T14:12:37;20.20;99.90
14397;DHT22;50653;47.810;13.022;2023-09-30T14:15:04;20.20;99.90
14397;DHT22;50653;47.810;13.022;2023-09-30T14:17:31;20.20;99.90
14397;DHT22;50653;47.810;13.022;2023-09-30T14:19:57;20.20;99.90
14397;DHT22;50653;47.810;13.022;2023-09-30T14:22:23;20.30;99.90
14397;DHT22;50653;47.810;13.022;2023-09-30T14:24:48;20.20;99.90
14397;DHT22;50653;47.810;13.022;2023-09-30T14:27:14;20.20;99.90
14397;DHT22;50653;47.810;13.022;2023-09-30T14:29:40;20.20;99.90
14397;DHT22;50653;47.810;13.022;2023-09-30T14:32:07;20.20;99.90
14397;DHT22;50653;47.810;13.022;2023-09-30T14:34:33;20.20;99.90
14397;DHT22;50653;47.810;13.022;2023-09-30T14:36:58;20.10;99.90
14397;DHT22;50653;47.810;13.022;2023-09-30T14:39:24;20.10;99.90
14397;DHT22;50653;47.810;13.022;2023-09-30T14:41:50;20.20;99.90
14397;DHT22;50653;47.810;13.022;2023-09-30T14:44:15;20.10;99.90
14397;DHT22;50653;47.810;13.022;2023-09-30T14:46:42;20.10;99.90
14397;DHT22;50653;47.810;13.022;2023-09-30T14:49:08;20.20;99.90
14397;DHT22;50653;47.810;13.022;2023-09-30T14:51:34;20.10;99.90
14397;DHT22;50653;47.810;13.022;2023-09-30T14:54:00;20.10;99.90
14397;DHT22;50653;47.810;13.022;2023-09-30T14:56:27;20.10;99.90
14397;DHT22;50653;47.810;13.022;2023-09-30T14:58:52;20.10;99.90
14397;DHT22;50653;47.810;13.022;2023-09-30T15:01:18;20.10;99.90
14397;DHT22;50653;47.810;13.022;2023-09-30T15:03:45;20.00;99.90
14397;DHT22;50653;47.810;13.022;2023-09-30T15:06:11;20.10;99.90
14397;DHT22;50653;47.810;13.022;2023-09-30T15:08:36;20.10;99.90
14397;DHT22;50653;47.810;13.022;2023-09-30T15:11:03;20.10;99.90
14397;DHT22;50653;47.810;13.022;2023-09-30T15:13:29;20.10;99.90
14397;DHT22;50653;47.810;13.022;2023-09-30T15:15:55;20.10;99.90
14397;DHT22;50653;47.810;13.022;2023-09-30T15:18:21;20.10;99.90
14397;DHT22;50653;47.810;13.022;2023-09-30T15:20:49;20.00;99.90
14397;DHT22;50653;47.810;13.022;2023-09-30T15:23:15;20.10;99.90
14397;DHT22;50653;47.810;13.022;2023-09-30T15:25:42;20.00;99.90
14397;DHT22;50653;47.810;13.022;2023-09-30T15:28:10;20.00;99.90
14397;DHT22;50653;47.810;13.022;2023-09-30T15:30:37;20.00;99.90
14397;DHT22;50653;47.810;13.022;2023-09-30T15:33:03;20.00;99.90
14397;DHT22;50653;47.810;13.022;2023-09-30T15:35:29;20.00;99.90